aviador You're here:

SCCY Decoded Metar

COYHAIQUE in CHILE
Report Time2017-09-23 21:00:00
UTC Time2017-09-23 21:35:13
Flight Rules vfr VFR
WindVRB at 09 kt
Visibility9999 m
Phenomena:N/A
Clouds:Scattered 040 Hf
Expected CloudBase > 5,600 ft AGL from Temp-Dew spread
CeilingNone
Temp15°C (ISA +2)
Dew Point01°C (39% RH)
AAT9.9°C
QNH0999 hPa
Density Alt1,827 ft
Elevation1,020 ft
Report Wrong Elevation
Raw Report
METAR SCCY 232100Z VRB09KT 9999 SCT040 15/01 Q0999=

Extra information for SCCY:More info

Metar Taf Metar & Taf Last 4 Metars F.Rules Stats Wind Profile Meteogram Temp Stats Airport Information Weather charts Add Link Nearby VenuesMetar ALERT Operation Metar Decoded Social comments